createdAt,value
2019-05-13T00:00:03.736Z,7.20
2019-05-13T00:01:07.023Z,7.15
2019-05-13T00:02:04.549Z,7.15
2019-05-13T00:03:03.655Z,7.17
2019-05-13T00:04:03.623Z,7.13
2019-05-13T00:05:03.899Z,7.10
2019-05-13T00:06:04.224Z,7.07
2019-05-13T00:07:04.674Z,7.09
2019-05-13T00:08:03.455Z,7.20
2019-05-13T00:09:03.516Z,7.13
2019-05-13T00:10:04.052Z,7.07
2019-05-13T00:11:04.398Z,7.09
2019-05-13T00:12:04.774Z,7.13
2019-05-13T00:13:04.517Z,7.12
2019-05-13T00:14:04.420Z,7.13
2019-05-13T00:15:03.741Z,7.16
2019-05-13T00:16:03.676Z,7.12
2019-05-13T00:17:04.200Z,7.13
2019-05-13T00:18:03.873Z,7.12
2019-05-13T00:19:04.134Z,7.05
2019-05-13T00:20:03.936Z,7.21
2019-05-13T00:21:03.643Z,7.10
2019-05-13T00:22:03.822Z,7.13
2019-05-13T00:23:03.993Z,7.09
2019-05-13T00:24:04.133Z,7.09
2019-05-13T00:25:04.004Z,7.06
2019-05-13T00:26:03.839Z,7.12
2019-05-13T00:27:03.895Z,7.13
2019-05-13T00:28:04.107Z,7.07
2019-05-13T00:29:04.121Z,7.09
2019-05-13T00:30:04.297Z,7.06
2019-05-13T00:31:03.452Z,7.06
2019-05-13T00:32:04.737Z,7.06
2019-05-13T00:33:03.857Z,6.99
2019-05-13T00:34:03.693Z,7.06
2019-05-13T00:35:03.934Z,6.97
2019-05-13T00:36:04.074Z,7.02
2019-05-13T00:37:08.895Z,7.05
2019-05-13T00:38:03.791Z,7.03
2019-05-13T00:39:03.902Z,7.06
2019-05-13T00:40:03.982Z,7.02
2019-05-13T00:41:03.711Z,7.07
2019-05-13T00:42:04.064Z,7.03
2019-05-13T00:43:03.815Z,6.89
2019-05-13T00:44:03.854Z,7.10
2019-05-13T00:45:03.999Z,7.03
2019-05-13T00:46:03.874Z,7.05
2019-05-13T00:47:04.460Z,6.98
2019-05-13T00:48:04.642Z,6.97
2019-05-13T00:49:04.566Z,6.94
2019-05-13T00:50:03.685Z,7.05
2019-05-13T00:51:03.778Z,6.95
2019-05-13T00:52:03.836Z,7.03
2019-05-13T00:53:04.343Z,6.95
2019-05-13T00:54:04.370Z,6.94
2019-05-13T00:55:04.228Z,6.94
2019-05-13T00:56:04.056Z,6.98
2019-05-13T00:57:04.212Z,6.91
2019-05-13T00:58:04.300Z,6.94
2019-05-13T00:59:03.678Z,6.87
2019-05-13T01:00:03.504Z,6.95
2019-05-13T01:01:03.590Z,6.89
2019-05-13T01:02:03.625Z,6.88
2019-05-13T01:03:04.127Z,6.95
2019-05-13T01:04:03.996Z,6.99
2019-05-13T01:05:04.275Z,6.87
2019-05-13T01:06:04.283Z,6.92
2019-05-13T01:07:04.410Z,6.95
2019-05-13T01:08:04.346Z,6.92
2019-05-13T01:09:04.144Z,6.95
2019-05-13T01:10:04.214Z,6.97
2019-05-13T01:11:04.292Z,6.89
2019-05-13T01:12:04.468Z,7.02
2019-05-13T01:13:04.649Z,7.02
2019-05-13T01:14:04.297Z,6.98
2019-05-13T01:15:04.087Z,6.99
2019-05-13T01:16:03.676Z,6.95
2019-05-13T01:17:03.838Z,6.98
2019-05-13T01:18:03.907Z,6.95
2019-05-13T01:19:04.189Z,6.87
2019-05-13T01:20:04.121Z,6.95
2019-05-13T01:21:04.213Z,6.91
2019-05-13T01:22:03.394Z,6.89
2019-05-13T01:23:03.551Z,6.88
2019-05-13T01:24:03.713Z,6.97
2019-05-13T01:25:03.948Z,6.92
2019-05-13T01:26:03.938Z,7.02
2019-05-13T01:27:03.895Z,7.03
2019-05-13T01:28:04.242Z,6.92
2019-05-13T01:29:04.087Z,6.85
2019-05-13T01:30:04.099Z,6.92
2019-05-13T01:31:04.143Z,6.88
2019-05-13T01:32:04.257Z,6.91
2019-05-13T01:33:04.233Z,6.88
2019-05-13T01:34:04.048Z,6.88
2019-05-13T01:35:04.445Z,6.81
2019-05-13T01:36:04.985Z,6.89
2019-05-13T01:37:04.130Z,6.91
2019-05-13T01:38:04.242Z,6.95
2019-05-13T01:39:04.162Z,6.99
2019-05-13T01:40:04.907Z,6.94
2019-05-13T01:41:04.259Z,6.92
2019-05-13T01:42:03.658Z,6.92
2019-05-13T01:43:03.540Z,6.88
2019-05-13T01:44:03.958Z,6.87
2019-05-13T01:45:04.478Z,6.89
2019-05-13T01:46:04.220Z,6.88
2019-05-13T01:47:04.251Z,6.97
2019-05-13T01:48:06.306Z,6.87
2019-05-13T01:49:04.888Z,6.91
2019-05-13T01:50:03.980Z,6.88
2019-05-13T01:51:03.849Z,6.85
2019-05-13T01:52:03.702Z,6.76
2019-05-13T01:53:04.183Z,6.71
2019-05-13T01:54:03.972Z,6.62
2019-05-13T01:55:04.022Z,6.61
2019-05-13T01:56:03.877Z,6.61
2019-05-13T01:57:04.119Z,6.61
2019-05-13T01:58:04.175Z,6.62
2019-05-13T01:59:03.616Z,6.69
2019-05-13T02:00:04.530Z,6.61
2019-05-13T02:01:01.747Z,6.51
2019-05-13T02:02:03.490Z,6.56
2019-05-13T02:03:03.893Z,6.59
2019-05-13T02:04:03.936Z,6.61
2019-05-13T02:05:03.743Z,6.70
2019-05-13T02:06:03.800Z,6.71
2019-05-13T02:07:04.142Z,6.61
2019-05-13T02:08:03.996Z,6.70
2019-05-13T02:09:03.834Z,6.67
2019-05-13T02:10:04.128Z,6.73
2019-05-13T02:11:04.014Z,6.70
2019-05-13T02:12:04.242Z,6.73
2019-05-13T02:13:03.839Z,6.67
2019-05-13T02:14:01.606Z,6.74
2019-05-13T02:15:04.207Z,6.66
2019-05-13T02:16:03.900Z,6.70
2019-05-13T02:17:03.954Z,6.67
2019-05-13T02:18:03.872Z,6.67
2019-05-13T02:19:03.899Z,6.70
2019-05-13T02:20:03.901Z,6.66
2019-05-13T02:21:04.855Z,6.66
2019-05-13T02:22:03.678Z,6.61
2019-05-13T02:23:03.848Z,6.67
2019-05-13T02:24:04.221Z,6.58
2019-05-13T02:25:04.154Z,6.59
2019-05-13T02:26:01.431Z,6.62
2019-05-13T02:27:03.634Z,6.58
2019-05-13T02:28:08.745Z,6.61
2019-05-13T02:29:03.662Z,6.69
2019-05-13T02:30:05.177Z,6.64
2019-05-13T02:31:01.389Z,6.61
2019-05-13T02:32:02.785Z,6.56
2019-05-13T02:33:02.753Z,6.55
2019-05-13T02:34:02.454Z,6.59
2019-05-13T02:35:02.709Z,6.54
2019-05-13T02:36:03.004Z,6.55
2019-05-13T02:37:03.337Z,6.61
2019-05-13T02:38:18.421Z,6.56
2019-05-13T02:39:02.507Z,6.52
2019-05-13T02:40:03.444Z,6.49
2019-05-13T02:41:02.825Z,6.56
2019-05-13T02:42:03.587Z,6.62
2019-05-13T02:43:02.902Z,6.52
2019-05-13T02:44:03.582Z,6.52
2019-05-13T02:45:03.772Z,6.56
2019-05-13T02:46:04.135Z,6.52
2019-05-13T02:47:03.464Z,6.44
2019-05-13T02:48:03.241Z,6.44
2019-05-13T02:49:03.265Z,6.34
2019-05-13T02:50:04.824Z,6.30
2019-05-13T02:51:03.669Z,6.27
2019-05-13T02:52:02.743Z,6.33
2019-05-13T02:53:02.404Z,6.22
2019-05-13T02:54:03.515Z,6.18
2019-05-13T02:55:03.969Z,6.14
2019-05-13T02:56:03.016Z,6.15
2019-05-13T02:57:03.677Z,6.14
2019-05-13T02:58:03.197Z,6.08
2019-05-13T02:59:03.874Z,6.21
2019-05-13T03:00:04.162Z,6.21
2019-05-13T03:01:03.179Z,6.18
2019-05-13T03:02:03.713Z,6.27
2019-05-13T03:03:03.199Z,6.19
2019-05-13T03:04:03.061Z,6.19
2019-05-13T03:05:03.222Z,6.14
2019-05-13T03:06:02.880Z,6.12
2019-05-13T03:07:02.969Z,6.06
2019-05-13T03:08:03.338Z,6.15
2019-05-13T03:09:03.137Z,6.09
2019-05-13T03:10:04.266Z,6.11
2019-05-13T03:11:03.002Z,6.15
2019-05-13T03:12:04.200Z,6.11
2019-05-13T03:13:03.546Z,6.19
2019-05-13T03:14:03.581Z,6.18
2019-05-13T03:15:02.755Z,6.22
2019-05-13T03:16:02.959Z,6.18
2019-05-13T03:17:03.139Z,6.19
2019-05-13T03:18:03.416Z,6.21
2019-05-13T03:19:02.824Z,6.19
2019-05-13T03:20:03.997Z,6.18
2019-05-13T03:21:03.298Z,6.22
2019-05-13T03:22:03.104Z,6.18
2019-05-13T03:23:02.969Z,6.19
2019-05-13T03:24:03.591Z,6.19
2019-05-13T03:25:03.173Z,6.09
2019-05-13T03:26:02.819Z,6.09
2019-05-13T03:27:02.453Z,6.17
2019-05-13T03:28:03.200Z,6.01
2019-05-13T03:29:02.817Z,6.12
2019-05-13T03:30:04.186Z,6.09
2019-05-13T03:31:06.799Z,6.08
2019-05-13T03:32:05.557Z,6.12
2019-05-13T03:33:09.034Z,6.12
2019-05-13T03:34:05.747Z,6.11
2019-05-13T03:35:06.417Z,6.06
2019-05-13T03:36:06.412Z,6.03
2019-05-13T03:37:05.466Z,5.99
2019-05-13T03:38:03.361Z,6.08
2019-05-13T03:39:06.999Z,5.97
2019-05-13T03:40:03.401Z,5.96
2019-05-13T03:41:03.227Z,5.90
2019-05-13T03:42:02.914Z,5.86
2019-05-13T03:43:02.789Z,5.86
2019-05-13T03:44:02.546Z,5.82
2019-05-13T03:45:02.974Z,5.91
2019-05-13T03:46:03.397Z,5.86
2019-05-13T03:47:03.487Z,5.85
2019-05-13T03:48:04.256Z,5.89
2019-05-13T03:49:02.474Z,5.86
2019-05-13T03:50:03.453Z,5.89
2019-05-13T03:51:02.742Z,5.96
2019-05-13T03:52:02.921Z,5.91
2019-05-13T03:53:03.069Z,5.91
2019-05-13T03:54:03.181Z,5.99
2019-05-13T03:55:03.168Z,5.93
2019-05-13T03:56:02.461Z,5.96
2019-05-13T03:57:03.536Z,6.00
2019-05-13T03:58:03.060Z,5.89
2019-05-13T03:59:02.671Z,5.82
2019-05-13T04:00:03.498Z,5.82
2019-05-13T04:01:02.870Z,5.81
2019-05-13T04:02:02.555Z,5.72
2019-05-13T04:03:03.163Z,5.75
2019-05-13T04:04:03.253Z,5.75
2019-05-13T04:05:03.758Z,5.75
2019-05-13T04:06:03.570Z,5.78
2019-05-13T04:07:02.650Z,5.75
2019-05-13T04:08:03.159Z,5.74
2019-05-13T04:09:17.245Z,5.65
2019-05-13T04:10:03.286Z,5.74
2019-05-13T04:11:02.915Z,5.79
2019-05-13T04:12:03.156Z,5.82
2019-05-13T04:13:03.456Z,5.86
2019-05-13T04:14:03.327Z,5.82
2019-05-13T04:15:03.428Z,5.79
2019-05-13T04:16:03.554Z,5.75
2019-05-13T04:17:02.889Z,5.74
2019-05-13T04:18:02.703Z,5.72
2019-05-13T04:19:02.602Z,5.78
2019-05-13T04:20:02.737Z,5.71
2019-05-13T04:21:02.704Z,5.79
2019-05-13T04:22:02.350Z,5.75
2019-05-13T04:23:02.984Z,5.75
2019-05-13T04:24:03.715Z,5.72
2019-05-13T04:25:02.524Z,5.81
2019-05-13T04:26:03.081Z,5.76
2019-05-13T04:27:02.862Z,5.72
2019-05-13T04:28:03.226Z,5.91
2019-05-13T04:29:03.052Z,5.86
2019-05-13T04:30:03.273Z,5.85
2019-05-13T04:31:02.427Z,5.81
2019-05-13T04:32:02.214Z,5.89
2019-05-13T04:33:02.407Z,5.99
2019-05-13T04:34:02.301Z,5.99
2019-05-13T04:35:03.367Z,5.94
2019-05-13T04:36:02.538Z,5.91
2019-05-13T04:37:02.499Z,6.03
2019-05-13T04:38:02.459Z,6.03
2019-05-13T04:39:03.016Z,5.91
2019-05-13T04:40:03.390Z,5.91
2019-05-13T04:41:03.150Z,5.97
2019-05-13T04:42:02.354Z,5.83
2019-05-13T04:43:02.873Z,5.93
2019-05-13T04:44:02.574Z,5.93
2019-05-13T04:45:02.940Z,5.85
2019-05-13T04:46:02.363Z,5.90
2019-05-13T04:47:03.214Z,5.96
2019-05-13T04:48:02.946Z,5.90
2019-05-13T04:49:02.246Z,6.00
2019-05-13T04:50:02.871Z,6.15
2019-05-13T04:51:02.678Z,6.14
2019-05-13T04:52:03.293Z,6.12
2019-05-13T04:53:03.023Z,5.93
2019-05-13T04:54:02.723Z,6.14
2019-05-13T04:55:02.990Z,6.14
2019-05-13T04:56:02.814Z,6.18
2019-05-13T04:57:02.673Z,6.27
2019-05-13T04:58:03.147Z,6.30
2019-05-13T04:59:02.771Z,6.31
2019-05-13T05:00:03.734Z,6.33
2019-05-13T05:01:04.812Z,6.28
2019-05-13T05:02:04.662Z,6.37
2019-05-13T05:03:03.106Z,6.46
2019-05-13T05:04:03.121Z,6.38
2019-05-13T05:05:02.986Z,6.49
2019-05-13T05:06:02.983Z,6.56
2019-05-13T05:07:02.320Z,6.52
2019-05-13T05:08:02.914Z,6.58
2019-05-13T05:09:03.038Z,6.54
2019-05-13T05:10:17.664Z,6.52
2019-05-13T05:11:02.480Z,6.54
2019-05-13T05:12:02.151Z,6.61
2019-05-13T05:13:02.166Z,6.51
2019-05-13T05:14:02.508Z,6.56
2019-05-13T05:15:02.631Z,6.62
2019-05-13T05:16:02.634Z,6.61
2019-05-13T05:16:59.529Z,6.64
2019-05-13T05:18:02.595Z,6.55
2019-05-13T05:19:02.135Z,6.66
2019-05-13T05:20:03.196Z,6.67
2019-05-13T05:21:01.500Z,6.64
2019-05-13T05:22:02.427Z,6.61
2019-05-13T05:23:01.773Z,6.62
2019-05-13T05:24:01.851Z,6.69
2019-05-13T05:25:01.547Z,6.61
2019-05-13T05:26:01.240Z,6.67
2019-05-13T05:27:01.427Z,6.70
2019-05-13T05:28:01.976Z,6.69
2019-05-13T05:28:59.391Z,6.69
2019-05-13T05:30:01.885Z,6.62
2019-05-13T05:30:59.387Z,6.69
2019-05-13T05:32:01.337Z,6.69
2019-05-13T05:33:02.018Z,6.76
2019-05-13T05:33:59.335Z,6.73
2019-05-13T05:35:01.173Z,6.77
2019-05-13T05:36:01.698Z,6.74
2019-05-13T05:37:01.397Z,6.85
2019-05-13T05:38:01.477Z,6.87
2019-05-13T05:39:01.590Z,6.92
2019-05-13T05:40:01.742Z,6.87
2019-05-13T05:41:01.549Z,6.84
2019-05-13T05:41:59.278Z,6.89
2019-05-13T05:42:59.258Z,6.85
2019-05-13T05:44:02.186Z,6.89
2019-05-13T05:44:59.213Z,6.97
2019-05-13T05:46:01.635Z,6.97
2019-05-13T05:47:02.014Z,6.97
2019-05-13T05:48:01.497Z,7.07
2019-05-13T05:48:59.191Z,7.03
2019-05-13T05:49:59.159Z,6.98
2019-05-13T05:51:01.999Z,7.03
2019-05-13T05:52:01.550Z,7.09
2019-05-13T05:52:59.171Z,7.13
2019-05-13T05:53:59.137Z,7.13
2019-05-13T05:54:59.117Z,7.21
2019-05-13T05:55:59.506Z,7.20
2019-05-13T05:57:01.149Z,7.24
2019-05-13T05:58:01.465Z,7.27
2019-05-13T05:59:02.542Z,7.27
2019-05-13T05:59:59.065Z,7.24
2019-05-13T06:00:59.077Z,7.37
2019-05-13T06:02:01.717Z,7.35
2019-05-13T06:03:02.306Z,7.32
2019-05-13T06:04:01.392Z,7.50
2019-05-13T06:04:59.015Z,7.48
2019-05-13T06:05:58.996Z,7.57
2019-05-13T06:06:58.997Z,7.71
2019-05-13T06:07:58.969Z,7.64
2019-05-13T06:08:58.968Z,7.61
2019-05-13T06:09:58.957Z,7.71
2019-05-13T06:11:00.747Z,7.71
2019-05-13T06:11:58.935Z,7.80
2019-05-13T06:12:58.935Z,7.82
2019-05-13T06:13:58.939Z,7.90
2019-05-13T06:14:58.911Z,7.89
2019-05-13T06:15:58.879Z,7.98
2019-05-13T06:16:58.917Z,8.02
2019-05-13T06:17:58.896Z,8.00
2019-05-13T06:19:01.260Z,8.02
2019-05-13T06:19:58.842Z,8.00
2019-05-13T06:20:58.875Z,7.98
2019-05-13T06:21:58.813Z,7.98
2019-05-13T06:22:58.814Z,7.93
2019-05-13T06:23:58.822Z,8.00
2019-05-13T06:25:01.273Z,7.97
2019-05-13T06:25:58.769Z,7.83
2019-05-13T06:27:01.284Z,7.80
2019-05-13T06:27:58.739Z,7.97
2019-05-13T06:28:58.752Z,7.97
2019-05-13T06:29:58.728Z,7.90
2019-05-13T06:30:58.751Z,7.85
2019-05-13T06:32:14.051Z,7.92
2019-05-13T06:33:01.612Z,7.97
2019-05-13T06:33:58.691Z,7.89
2019-05-13T06:35:01.263Z,7.97
2019-05-13T06:36:01.039Z,7.95
2019-05-13T06:36:58.684Z,7.98
2019-05-13T06:37:58.646Z,7.92
2019-05-13T06:38:58.638Z,7.92
2019-05-13T06:39:58.617Z,7.98
2019-05-13T06:41:03.542Z,7.89
2019-05-13T06:41:58.627Z,7.80
2019-05-13T06:42:58.617Z,7.85
2019-05-13T06:43:58.565Z,7.87
2019-05-13T06:44:58.642Z,7.79
2019-05-13T06:45:58.559Z,7.97
2019-05-13T06:46:58.547Z,7.95
2019-05-13T06:47:58.545Z,7.95
2019-05-13T06:48:58.508Z,7.98
2019-05-13T06:49:58.522Z,8.00
2019-05-13T06:50:58.487Z,8.00
2019-05-13T06:51:58.495Z,8.08
2019-05-13T06:52:58.482Z,8.11
2019-05-13T06:53:58.474Z,8.16
2019-05-13T06:54:58.441Z,8.19
2019-05-13T06:55:58.441Z,8.28
2019-05-13T06:56:58.424Z,8.25
2019-05-13T06:57:58.419Z,8.43
2019-05-13T06:58:58.415Z,8.43
2019-05-13T06:59:58.430Z,8.50
2019-05-13T07:00:58.897Z,8.66
2019-05-13T07:01:58.361Z,8.65
2019-05-13T07:02:58.373Z,8.79
2019-05-13T07:03:58.355Z,8.87
2019-05-13T07:04:58.345Z,8.89
2019-05-13T07:05:58.356Z,9.08
2019-05-13T07:07:09.859Z,9.15
2019-05-13T07:07:58.300Z,9.13
2019-05-13T07:08:58.314Z,9.14
2019-05-13T07:09:58.295Z,9.13
2019-05-13T07:10:58.290Z,9.10
2019-05-13T07:11:58.379Z,9.17
2019-05-13T07:12:58.239Z,9.04
2019-05-13T07:13:58.226Z,9.14
2019-05-13T07:14:58.219Z,9.04
2019-05-13T07:15:58.259Z,9.17
2019-05-13T07:16:58.245Z,9.14
2019-05-13T07:17:58.185Z,9.14
2019-05-13T07:18:58.202Z,9.11
2019-05-13T07:19:58.164Z,9.14
2019-05-13T07:21:01.978Z,9.18
2019-05-13T07:21:58.171Z,9.14
2019-05-13T07:22:58.145Z,9.15
2019-05-13T07:23:58.118Z,9.11
2019-05-13T07:24:58.103Z,9.01
2019-05-13T07:25:58.092Z,8.96
2019-05-13T07:26:58.120Z,8.83
2019-05-13T07:27:58.085Z,8.83
2019-05-13T07:28:58.554Z,8.87
2019-05-13T07:29:58.052Z,8.83
2019-05-13T07:30:58.045Z,8.71
2019-05-13T07:31:58.049Z,8.74
2019-05-13T07:32:58.027Z,8.81
2019-05-13T07:33:58.022Z,8.83
2019-05-13T07:34:58.021Z,8.84
2019-05-13T07:35:58.642Z,8.81
2019-05-13T07:36:57.973Z,8.80
2019-05-13T07:37:57.983Z,8.94
2019-05-13T07:38:57.976Z,8.99
2019-05-13T07:39:57.949Z,9.05
2019-05-13T07:40:57.927Z,9.04
2019-05-13T07:41:57.919Z,9.08
2019-05-13T07:42:57.919Z,9.13
2019-05-13T07:43:57.898Z,9.15
2019-05-13T07:44:57.891Z,9.18
2019-05-13T07:45:57.889Z,9.15
2019-05-13T07:46:57.887Z,9.21
2019-05-13T07:47:57.875Z,9.18
2019-05-13T07:48:57.866Z,9.23
2019-05-13T07:49:57.831Z,9.29
2019-05-13T07:51:00.454Z,9.40
2019-05-13T07:51:57.825Z,9.53
2019-05-13T07:52:57.835Z,9.48
2019-05-13T07:53:57.781Z,9.68
2019-05-13T07:54:57.776Z,9.76
2019-05-13T07:55:57.767Z,9.75
2019-05-13T07:56:57.773Z,9.91
2019-05-13T07:57:57.759Z,9.96
2019-05-13T07:58:57.756Z,10.08
2019-05-13T07:59:57.719Z,10.14
2019-05-13T08:00:57.727Z,10.38
2019-05-13T08:01:57.713Z,10.51
2019-05-13T08:02:57.695Z,10.63
2019-05-13T08:03:57.687Z,10.70
2019-05-13T08:04:57.655Z,10.82
2019-05-13T08:05:57.648Z,10.76
2019-05-13T08:06:57.639Z,10.86
2019-05-13T08:07:57.642Z,10.91
2019-05-13T08:08:57.644Z,10.92
2019-05-13T08:10:00.236Z,10.88
2019-05-13T08:10:57.592Z,11.03
2019-05-13T08:12:08.664Z,11.18
2019-05-13T08:12:57.573Z,11.22
2019-05-13T08:13:57.569Z,11.25
2019-05-13T08:14:57.587Z,11.33
2019-05-13T08:15:57.531Z,11.37
2019-05-13T08:16:57.525Z,11.55
2019-05-13T08:17:57.509Z,11.40
2019-05-13T08:18:57.505Z,11.43
2019-05-13T08:19:57.520Z,11.49
2019-05-13T08:20:57.499Z,11.47
2019-05-13T08:21:57.472Z,11.47
2019-05-13T08:22:57.470Z,11.46
2019-05-13T08:23:57.449Z,11.51
2019-05-13T08:24:57.485Z,11.43
2019-05-13T08:25:57.459Z,11.52
2019-05-13T08:26:57.442Z,11.52
2019-05-13T08:27:57.404Z,11.62
2019-05-13T08:29:01.940Z,11.61
2019-05-13T08:29:57.379Z,11.70
2019-05-13T08:30:57.394Z,11.80
2019-05-13T08:31:57.371Z,11.88
2019-05-13T08:32:57.384Z,11.82
2019-05-13T08:33:57.337Z,11.90
2019-05-13T08:35:02.022Z,11.90
2019-05-13T08:35:58.833Z,11.88
2019-05-13T08:36:57.616Z,11.95
2019-05-13T08:37:57.304Z,12.04
2019-05-13T08:38:57.307Z,12.05
2019-05-13T08:39:57.267Z,12.16
2019-05-13T08:40:57.258Z,12.17
2019-05-13T08:42:11.805Z,12.10
2019-05-13T08:42:57.247Z,12.07
2019-05-13T08:43:57.241Z,12.01
2019-05-13T08:44:57.222Z,12.02
2019-05-13T08:45:57.238Z,11.85
2019-05-13T08:46:57.190Z,11.69
2019-05-13T08:47:57.176Z,11.80
2019-05-13T08:48:57.185Z,11.88
2019-05-13T08:50:00.334Z,11.86
2019-05-13T08:50:58.198Z,12.09
2019-05-13T08:51:57.133Z,12.05
2019-05-13T08:52:57.123Z,12.20
2019-05-13T08:53:57.107Z,12.34
2019-05-13T08:54:57.100Z,12.28
2019-05-13T08:55:57.110Z,12.34
2019-05-13T08:56:57.081Z,12.37
2019-05-13T08:57:57.077Z,12.38
2019-05-13T08:58:57.054Z,12.45
2019-05-13T08:59:57.045Z,12.45
2019-05-13T09:00:59.182Z,12.31
2019-05-13T09:01:57.153Z,12.14
2019-05-13T09:02:57.012Z,12.04
2019-05-13T09:03:57.015Z,12.02
2019-05-13T09:04:56.990Z,11.95
2019-05-13T09:05:56.977Z,11.85
2019-05-13T09:06:57.034Z,11.67
2019-05-13T09:07:56.986Z,11.49
2019-05-13T09:08:56.941Z,11.39
2019-05-13T09:09:56.950Z,11.29
2019-05-13T09:10:57.375Z,11.36
2019-05-13T09:11:56.936Z,11.36
2019-05-13T09:12:56.907Z,11.25
2019-05-13T09:13:56.907Z,11.27
2019-05-13T09:14:56.872Z,11.29
2019-05-13T09:15:56.858Z,11.24
2019-05-13T09:16:56.885Z,11.19
2019-05-13T09:17:56.854Z,11.28
2019-05-13T09:18:56.852Z,11.27
2019-05-13T09:19:56.855Z,11.33
2019-05-13T09:20:56.815Z,11.36
2019-05-13T09:21:56.806Z,11.40
2019-05-13T09:22:56.799Z,11.54
2019-05-13T09:23:56.795Z,11.49
2019-05-13T09:24:56.776Z,11.69
2019-05-13T09:25:56.793Z,11.75
2019-05-13T09:26:56.740Z,11.86
2019-05-13T09:27:56.738Z,11.85
2019-05-13T09:28:56.724Z,11.91
2019-05-13T09:29:56.714Z,12.04
2019-05-13T09:30:56.715Z,12.10
2019-05-13T09:31:56.687Z,12.01
2019-05-13T09:32:56.736Z,12.09
2019-05-13T09:33:56.657Z,12.01
2019-05-13T09:34:56.664Z,12.09
2019-05-13T09:35:56.650Z,12.07
2019-05-13T09:36:56.654Z,12.04
2019-05-13T09:37:56.611Z,12.07
2019-05-13T09:38:56.608Z,12.27
2019-05-13T09:39:56.611Z,12.35
2019-05-13T09:40:56.593Z,12.47
2019-05-13T09:41:56.583Z,12.42
2019-05-13T09:42:56.557Z,12.54
2019-05-13T09:43:56.548Z,12.70
2019-05-13T09:44:56.551Z,12.77
2019-05-13T09:45:56.552Z,12.82
2019-05-13T09:46:56.545Z,12.79
2019-05-13T09:47:56.516Z,12.77
2019-05-13T09:49:11.736Z,12.74
2019-05-13T09:49:57.481Z,12.83
2019-05-13T09:50:56.464Z,12.87
2019-05-13T09:51:56.455Z,13.03
2019-05-13T09:52:56.463Z,13.00
2019-05-13T09:53:56.460Z,12.96
2019-05-13T09:54:56.423Z,12.78
2019-05-13T09:55:56.407Z,12.68
2019-05-13T09:56:56.408Z,12.59
2019-05-13T09:57:56.398Z,12.64
2019-05-13T09:58:56.441Z,12.54
2019-05-13T09:59:56.381Z,12.67
2019-05-13T10:00:56.364Z,12.77
2019-05-13T10:01:56.398Z,12.85
2019-05-13T10:02:56.348Z,12.95
2019-05-13T10:03:58.193Z,13.05
2019-05-13T10:04:56.325Z,12.90
2019-05-13T10:05:56.339Z,12.78
2019-05-13T10:06:56.289Z,12.67
2019-05-13T10:07:56.277Z,12.68
2019-05-13T10:08:56.287Z,12.60
2019-05-13T10:09:56.263Z,12.35
2019-05-13T10:10:56.263Z,12.29
2019-05-13T10:11:56.270Z,12.16
2019-05-13T10:13:07.994Z,12.09
2019-05-13T10:13:56.236Z,12.17
2019-05-13T10:14:56.203Z,12.17
2019-05-13T10:15:56.202Z,12.27
2019-05-13T10:16:56.198Z,12.17
2019-05-13T10:17:56.226Z,12.09
2019-05-13T10:18:56.210Z,12.10
2019-05-13T10:19:56.158Z,12.17
2019-05-13T10:20:58.445Z,12.17
2019-05-13T10:21:56.139Z,12.21
2019-05-13T10:22:56.128Z,12.35
2019-05-13T10:23:58.733Z,12.32
2019-05-13T10:24:56.136Z,12.31
2019-05-13T10:25:56.101Z,12.27
2019-05-13T10:26:56.089Z,12.34
2019-05-13T10:27:56.055Z,12.46
2019-05-13T10:28:56.087Z,12.50
2019-05-13T10:29:56.080Z,12.54
2019-05-13T10:30:56.035Z,12.46
2019-05-13T10:31:56.007Z,12.37
2019-05-13T10:32:59.445Z,12.38
2019-05-13T10:33:56.011Z,12.45
2019-05-13T10:34:55.994Z,12.47
2019-05-13T10:35:55.967Z,12.57
2019-05-13T10:36:55.966Z,12.60
2019-05-13T10:37:55.940Z,12.72
2019-05-13T10:38:55.934Z,12.83
2019-05-13T10:39:55.931Z,12.95
2019-05-13T10:40:55.961Z,12.96
2019-05-13T10:41:55.893Z,13.08
2019-05-13T10:42:55.953Z,13.17
2019-05-13T10:43:55.905Z,13.22
2019-05-13T10:44:55.872Z,13.17
2019-05-13T10:45:55.884Z,13.22
2019-05-13T10:46:55.870Z,13.11
2019-05-13T10:47:55.859Z,13.10
2019-05-13T10:48:55.844Z,13.11
2019-05-13T10:49:55.832Z,13.12
2019-05-13T10:50:55.807Z,13.25
2019-05-13T10:51:55.796Z,13.14
2019-05-13T10:52:55.804Z,13.19
2019-05-13T10:53:59.398Z,13.14
2019-05-13T10:54:55.771Z,13.14
2019-05-13T10:55:55.736Z,13.11
2019-05-13T10:56:59.474Z,13.07
2019-05-13T10:57:55.738Z,13.10
2019-05-13T10:58:55.707Z,13.00
2019-05-13T10:59:59.665Z,13.03
2019-05-13T11:00:55.683Z,12.89
2019-05-13T11:01:55.693Z,12.79
2019-05-13T11:02:55.674Z,12.72
2019-05-13T11:03:55.673Z,12.70
2019-05-13T11:04:55.639Z,12.74
2019-05-13T11:05:55.705Z,12.67
2019-05-13T11:06:55.617Z,12.67
2019-05-13T11:07:55.610Z,12.49
2019-05-13T11:08:55.619Z,12.41
2019-05-13T11:09:55.615Z,12.45
2019-05-13T11:10:55.576Z,12.38
2019-05-13T11:11:55.597Z,12.34
2019-05-13T11:12:55.562Z,12.41
2019-05-13T11:13:59.360Z,12.50
2019-05-13T11:14:56.559Z,12.52
2019-05-13T11:15:58.252Z,12.50
2019-05-13T11:16:55.502Z,12.62
2019-05-13T11:17:55.511Z,12.71
2019-05-13T11:18:55.496Z,12.89
2019-05-13T11:19:55.499Z,13.14
2019-05-13T11:20:55.470Z,13.36
2019-05-13T11:21:55.557Z,13.59
2019-05-13T11:22:55.450Z,13.73
2019-05-13T11:23:55.427Z,13.87
2019-05-13T11:24:55.449Z,13.95
2019-05-13T11:25:55.414Z,13.91
2019-05-13T11:26:55.409Z,13.81
2019-05-13T11:27:58.339Z,13.69
2019-05-13T11:28:55.368Z,13.52
2019-05-13T11:29:55.378Z,13.38
2019-05-13T11:30:59.607Z,13.33
2019-05-13T11:31:55.354Z,13.28
2019-05-13T11:32:55.376Z,13.20
2019-05-13T11:33:55.311Z,13.11
2019-05-13T11:34:55.306Z,13.14
2019-05-13T11:35:55.288Z,13.11
2019-05-13T11:36:55.279Z,13.23
2019-05-13T11:37:55.299Z,13.32
2019-05-13T11:38:55.298Z,13.39
2019-05-13T11:39:55.243Z,13.54
2019-05-13T11:40:55.232Z,13.66
2019-05-13T11:41:55.221Z,13.60
2019-05-13T11:42:55.263Z,13.69
2019-05-13T11:44:12.117Z,13.62
2019-05-13T11:44:56.194Z,13.59
2019-05-13T11:45:55.176Z,13.48
2019-05-13T11:46:55.164Z,13.57
2019-05-13T11:47:55.168Z,13.49
2019-05-13T11:48:55.165Z,13.42
2019-05-13T11:49:55.148Z,13.30
2019-05-13T11:50:55.150Z,13.23
2019-05-13T11:51:55.121Z,13.12
2019-05-13T11:52:55.115Z,13.22
2019-05-13T11:53:55.087Z,13.12
2019-05-13T11:54:55.093Z,13.15
2019-05-13T11:55:55.095Z,13.05
2019-05-13T11:57:56.061Z,12.87
2019-05-13T11:58:55.042Z,12.89
2019-05-13T11:59:55.024Z,12.87
2019-05-13T12:00:55.034Z,12.85
2019-05-13T12:01:55.028Z,12.89
2019-05-13T12:02:54.987Z,12.97
2019-05-13T12:03:54.992Z,13.07
2019-05-13T12:04:54.965Z,13.22
2019-05-13T12:05:54.958Z,13.36
2019-05-13T12:06:55.056Z,13.51
2019-05-13T12:07:54.961Z,13.60
2019-05-13T12:08:55.552Z,13.85
2019-05-13T12:09:54.917Z,13.88
2019-05-13T12:10:54.958Z,14.07
2019-05-13T12:11:54.897Z,14.03
2019-05-13T12:12:54.911Z,14.09
2019-05-13T12:13:54.897Z,14.06
2019-05-13T12:15:22.389Z,13.95
2019-05-13T12:15:55.887Z,13.69
2019-05-13T12:16:54.838Z,13.62
2019-05-13T12:17:54.832Z,13.60
2019-05-13T12:18:54.855Z,13.52
2019-05-13T12:19:54.817Z,13.49
2019-05-13T12:20:54.791Z,13.42
2019-05-13T12:21:54.817Z,13.38
2019-05-13T12:22:54.772Z,13.26
2019-05-13T12:23:54.771Z,13.33
2019-05-13T12:24:54.761Z,13.25
2019-05-13T12:25:54.770Z,13.25
2019-05-13T12:26:54.724Z,13.32
2019-05-13T12:27:54.709Z,13.41
2019-05-13T12:28:54.706Z,13.48
2019-05-13T12:29:54.716Z,13.52
2019-05-13T12:30:54.695Z,13.52
2019-05-13T12:31:54.734Z,13.62
2019-05-13T12:32:54.662Z,13.85
2019-05-13T12:33:54.688Z,14.03
2019-05-13T12:34:55.175Z,14.22
2019-05-13T12:35:54.637Z,14.40
2019-05-13T12:36:54.630Z,14.57
2019-05-13T12:37:54.635Z,14.51
2019-05-13T12:38:54.663Z,14.51
2019-05-13T12:39:54.657Z,14.52
2019-05-13T12:40:54.576Z,14.37
2019-05-13T12:41:54.627Z,14.36
2019-05-13T12:42:54.559Z,14.25
2019-05-13T12:43:54.534Z,14.12
2019-05-13T12:45:09.444Z,14.00
2019-05-13T12:45:55.553Z,13.84
2019-05-13T12:46:54.690Z,13.59
2019-05-13T12:47:54.496Z,13.44
2019-05-13T12:48:54.515Z,13.42
2019-05-13T12:49:54.465Z,13.33
2019-05-13T12:50:54.504Z,13.28
2019-05-13T12:52:00.795Z,13.15
2019-05-13T12:52:55.451Z,13.15
2019-05-13T12:53:54.436Z,13.08
2019-05-13T12:54:54.430Z,13.08
2019-05-13T12:55:56.855Z,13.26
2019-05-13T12:56:54.383Z,13.41
2019-05-13T12:57:54.410Z,13.52
2019-05-13T12:58:54.398Z,13.62
2019-05-13T12:59:54.388Z,13.87
2019-05-13T13:00:54.379Z,14.02
2019-05-13T13:01:54.379Z,14.07
2019-05-13T13:02:54.321Z,14.17
2019-05-13T13:03:54.312Z,14.12
2019-05-13T13:05:10.579Z,13.88
2019-05-13T13:06:21.218Z,13.89
2019-05-13T13:06:54.302Z,13.70
2019-05-13T13:08:16.660Z,13.70
2019-05-13T13:08:54.266Z,13.75